Frankville, Alabama
Current Conditions -  °F | °C
As of 1:55 PM on Sunday 23 Nov 2014 (Local Time) from KDYA Reporting Station
Broken Clouds Broken Clouds  
Wind Chill: 69°   Ceiling: 3400
Heat Index: 69°   Visibility: 10mi
Dew Point: 66°   Wind: 14mph
Humidity: 93%   Direction: 190°S
Pressure: 29.53"   Gusts: 22mph
Location:  31.65°N, 88.15°W
Report Text: KDYA 231955Z AUTO 19012G19KT 140V220 10SM SCT026 BKN034 BKN045 20/19 A2953 RMK AO2 T02030191
Loading
Personal Weather Stations






























Interactive Weather Map New forecast layout! Learn more

10-Day Weather Forecast

Advertisements
Track Severe Weather on mobile